createdAt,value
2023-01-27T00:00:21.035Z,12.57
2023-01-27T00:02:47.503Z,11.97
2023-01-27T00:05:14.959Z,10.83
2023-01-27T00:07:50.830Z,10.63
2023-01-27T00:10:19.045Z,10.53
2023-01-27T00:13:04.618Z,10.50
2023-01-27T00:15:31.908Z,10.53
2023-01-27T00:17:58.185Z,10.63
2023-01-27T00:20:43.222Z,10.03
2023-01-27T00:23:35.765Z,11.47
2023-01-27T00:26:06.213Z,11.20
2023-01-27T00:28:33.181Z,10.77
2023-01-27T00:30:59.760Z,9.60
2023-01-27T00:33:27.192Z,10.27
2023-01-27T00:36:04.271Z,10.30
2023-01-27T00:38:32.045Z,10.47
2023-01-27T00:41:19.500Z,9.97
2023-01-27T00:43:46.865Z,10.10
2023-01-27T00:46:13.684Z,10.13
2023-01-27T00:48:40.282Z,9.90
2023-01-27T00:51:06.558Z,10.50
2023-01-27T00:53:51.663Z,9.90
2023-01-27T00:56:36.933Z,9.27
2023-01-27T00:59:12.208Z,8.73
2023-01-27T01:01:39.497Z,8.63
2023-01-27T01:04:05.904Z,8.33
2023-01-27T01:06:32.208Z,8.27
2023-01-27T01:08:58.639Z,8.63
2023-01-27T01:11:25.023Z,8.10
2023-01-27T01:13:52.634Z,7.73
2023-01-27T01:16:20.946Z,8.10
2023-01-27T01:18:47.575Z,7.77
2023-01-27T01:21:13.838Z,8.10
2023-01-27T01:23:43.932Z,7.77
2023-01-27T01:26:11.424Z,7.77
2023-01-27T01:28:37.943Z,7.30
2023-01-27T01:31:08.981Z,7.77
2023-01-27T01:33:35.882Z,7.90
2023-01-27T01:36:10.053Z,7.97
2023-01-27T01:38:36.854Z,8.87
2023-01-27T01:41:03.464Z,8.77
2023-01-27T01:43:29.734Z,9.30
2023-01-27T01:45:57.411Z,9.33
2023-01-27T01:48:42.589Z,10.33
2023-01-27T01:51:21.286Z,10.57
2023-01-27T01:53:51.326Z,10.83
2023-01-27T01:56:20.648Z,11.47
2023-01-27T01:58:48.096Z,11.57
2023-01-27T02:01:15.848Z,10.80
2023-01-27T02:03:44.051Z,9.90
2023-01-27T02:06:11.546Z,10.40
2023-01-27T02:08:42.798Z,11.17
2023-01-27T02:11:09.653Z,10.90
2023-01-27T02:13:36.507Z,10.37
2023-01-27T02:16:02.892Z,10.27
2023-01-27T02:18:29.673Z,11.13
2023-01-27T02:20:56.741Z,11.03
2023-01-27T02:23:41.714Z,10.87
2023-01-27T02:26:11.048Z,11.20
2023-01-27T02:28:37.401Z,11.83
2023-01-27T02:31:03.913Z,11.23
2023-01-27T02:33:30.264Z,11.47
2023-01-27T02:36:05.718Z,13.20
2023-01-27T02:38:36.270Z,11.37
2023-01-27T02:41:11.812Z,12.87
2023-01-27T02:43:38.115Z,12.47
2023-01-27T02:46:04.552Z,12.30
2023-01-27T02:48:30.905Z,12.37
2023-01-27T02:50:57.232Z,11.50
2023-01-27T02:53:23.545Z,11.83
2023-01-27T02:55:49.791Z,12.07
2023-01-27T02:58:16.410Z,12.17
2023-01-27T03:00:43.240Z,11.17
2023-01-27T03:03:09.540Z,12.20
2023-01-27T03:05:35.795Z,11.77
2023-01-27T03:08:02.183Z,12.07
2023-01-27T03:10:28.442Z,12.30
2023-01-27T03:13:13.067Z,14.10
2023-01-27T03:15:58.143Z,13.53
2023-01-27T03:18:24.579Z,13.33
2023-01-27T03:20:50.897Z,12.60
2023-01-27T03:23:18.914Z,14.10
2023-01-27T03:25:46.213Z,14.33
2023-01-27T03:28:12.608Z,13.37
2023-01-27T03:30:39.280Z,13.77
2023-01-27T03:33:07.311Z,11.50
2023-01-27T03:35:38.801Z,10.60
2023-01-27T03:38:31.243Z,9.33
2023-01-27T03:41:16.043Z,7.90
2023-01-27T03:44:00.907Z,6.57
2023-01-27T03:46:27.250Z,6.83
2023-01-27T03:48:54.611Z,6.30
2023-01-27T03:51:22.305Z,5.97
2023-01-27T03:53:49.024Z,5.10
2023-01-27T03:56:15.884Z,5.17
2023-01-27T03:58:42.473Z,5.47
2023-01-27T04:01:13.236Z,4.83
2023-01-27T04:03:58.321Z,4.70
2023-01-27T04:06:44.838Z,4.70
2023-01-27T04:09:11.828Z,4.73
2023-01-27T04:11:56.631Z,4.60
2023-01-27T04:14:24.297Z,4.90
2023-01-27T04:16:51.627Z,4.90
2023-01-27T04:19:18.197Z,5.20
2023-01-27T04:21:44.502Z,5.40
2023-01-27T04:24:16.742Z,5.60
2023-01-27T04:26:43.823Z,5.80
2023-01-27T04:29:10.197Z,6.50
2023-01-27T04:31:36.432Z,6.27
2023-01-27T04:34:02.737Z,5.97
2023-01-27T04:36:29.152Z,6.13
2023-01-27T04:38:55.465Z,5.80
2023-01-27T04:41:21.756Z,6.67
2023-01-27T04:43:48.120Z,6.27
2023-01-27T04:46:14.427Z,6.30
2023-01-27T04:48:40.687Z,6.60
2023-01-27T04:51:06.968Z,6.33
2023-01-27T04:53:33.265Z,6.93
2023-01-27T04:56:04.307Z,7.17
2023-01-27T04:58:30.689Z,6.90
2023-01-27T05:00:56.919Z,7.00
2023-01-27T05:03:23.159Z,6.50
2023-01-27T05:05:49.544Z,7.33
2023-01-27T05:08:15.864Z,7.90
2023-01-27T05:10:45.241Z,8.10
2023-01-27T05:13:11.666Z,9.10
2023-01-27T05:15:37.909Z,10.70
2023-01-27T05:18:04.179Z,9.20
2023-01-27T05:20:31.650Z,9.83
2023-01-27T05:23:17.916Z,10.70
2023-01-27T05:25:44.460Z,8.73
2023-01-27T05:28:11.271Z,8.90
2023-01-27T05:30:37.765Z,8.23
2023-01-27T05:33:04.289Z,7.40
2023-01-27T05:35:32.587Z,8.07
2023-01-27T05:37:58.920Z,7.57
2023-01-27T05:40:25.324Z,7.50
2023-01-27T05:43:10.027Z,8.50
2023-01-27T05:45:36.294Z,9.77
2023-01-27T05:48:02.562Z,8.00
2023-01-27T05:50:28.821Z,8.07
2023-01-27T05:52:55.129Z,7.40
2023-01-27T05:55:21.369Z,7.57
2023-01-27T05:57:47.707Z,7.00
2023-01-27T06:00:14.403Z,7.40
2023-01-27T06:02:40.747Z,7.37
2023-01-27T06:05:07.161Z,7.80
2023-01-27T06:07:51.299Z,7.93
2023-01-27T06:10:17.797Z,8.00
2023-01-27T06:12:44.048Z,8.63
2023-01-27T06:15:10.648Z,8.07
2023-01-27T06:17:37.012Z,7.87
2023-01-27T06:20:03.518Z,8.07
2023-01-27T06:22:29.764Z,10.57
2023-01-27T06:24:56.015Z,8.97
2023-01-27T06:27:22.277Z,9.40
2023-01-27T06:29:48.532Z,9.27
2023-01-27T06:32:14.752Z,9.27
2023-01-27T06:34:41.061Z,9.33
2023-01-27T06:37:07.280Z,9.80
2023-01-27T06:39:33.596Z,22.50
2023-01-27T06:41:59.920Z,24.00
2023-01-27T06:44:26.193Z,11.00
2023-01-27T06:46:53.404Z,9.40
2023-01-27T06:49:19.715Z,9.63
2023-01-27T06:51:45.938Z,10.90
2023-01-27T06:54:12.219Z,9.07
2023-01-27T06:56:38.460Z,9.90
2023-01-27T06:59:04.961Z,9.37
2023-01-27T07:01:31.263Z,10.10
2023-01-27T07:03:57.537Z,10.60
2023-01-27T07:06:23.761Z,10.03
2023-01-27T07:08:51.021Z,9.10
2023-01-27T07:11:17.316Z,10.63
2023-01-27T07:13:43.549Z,17.47
2023-01-27T07:16:09.968Z,13.87
2023-01-27T07:18:36.225Z,10.40
2023-01-27T07:21:04.104Z,10.00
2023-01-27T07:23:30.349Z,10.60
2023-01-27T07:25:56.677Z,10.07
2023-01-27T07:28:23.274Z,9.23
2023-01-27T07:30:49.717Z,9.70
2023-01-27T07:33:16.313Z,37.70
2023-01-27T07:35:42.921Z,20.47
2023-01-27T07:38:09.706Z,10.97
2023-01-27T07:40:36.221Z,10.37
2023-01-27T07:43:02.568Z,10.37
2023-01-27T07:45:29.148Z,10.27
2023-01-27T07:48:02.487Z,10.40
2023-01-27T07:50:29.126Z,10.63
2023-01-27T07:53:14.323Z,11.33
2023-01-27T07:55:40.723Z,11.00
2023-01-27T07:58:07.039Z,10.70
2023-01-27T08:00:33.492Z,12.47
2023-01-27T08:03:22.956Z,11.53
2023-01-27T08:05:49.885Z,11.43
2023-01-27T08:08:16.229Z,18.80
2023-01-27T08:10:47.022Z,13.83
2023-01-27T08:13:13.331Z,11.93
2023-01-27T08:15:39.643Z,13.70
2023-01-27T08:18:06.107Z,11.73
2023-01-27T08:20:32.514Z,11.40
2023-01-27T08:22:58.795Z,10.17
2023-01-27T08:25:25.198Z,10.53
2023-01-27T08:27:52.522Z,9.97
2023-01-27T08:30:19.321Z,21.80
2023-01-27T08:32:45.626Z,9.77
2023-01-27T08:35:11.864Z,9.23
2023-01-27T08:37:38.159Z,9.40
2023-01-27T08:40:07.408Z,9.17
2023-01-27T08:42:33.633Z,9.17
2023-01-27T08:45:00.475Z,9.90
2023-01-27T08:47:26.742Z,9.53
2023-01-27T08:49:54.335Z,10.13
2023-01-27T08:52:22.170Z,9.70
2023-01-27T08:54:48.403Z,9.60
2023-01-27T08:57:14.800Z,9.50
2023-01-27T08:59:41.099Z,14.23
2023-01-27T09:02:07.332Z,11.73
2023-01-27T09:04:33.803Z,9.63
2023-01-27T09:07:00.294Z,9.47
2023-01-27T09:09:26.606Z,9.33
2023-01-27T09:11:52.896Z,9.60
2023-01-27T09:14:20.172Z,10.00
2023-01-27T09:16:46.523Z,9.63
2023-01-27T09:19:13.430Z,10.13
2023-01-27T09:21:39.726Z,9.67
2023-01-27T09:24:06.216Z,9.47
2023-01-27T09:26:32.524Z,10.10
2023-01-27T09:28:58.942Z,9.60
2023-01-27T09:31:25.330Z,9.77
2023-01-27T09:33:51.588Z,10.57
2023-01-27T09:36:18.899Z,9.83
2023-01-27T09:38:49.524Z,9.57
2023-01-27T09:41:48.257Z,9.83
2023-01-27T09:44:32.977Z,9.20
2023-01-27T09:47:02.565Z,9.70
2023-01-27T09:49:32.548Z,9.33
2023-01-27T09:51:58.903Z,10.17
2023-01-27T09:54:34.471Z,11.50
2023-01-27T09:57:12.592Z,14.30
2023-01-27T09:59:57.004Z,10.13
2023-01-27T10:02:38.860Z,8.80
2023-01-27T10:05:11.039Z,7.83
2023-01-27T10:07:59.434Z,8.13
2023-01-27T10:10:25.649Z,7.23
2023-01-27T10:13:04.393Z,7.73
2023-01-27T10:16:08.152Z,7.20
2023-01-27T10:18:43.749Z,6.70
2023-01-27T10:21:25.355Z,7.40
2023-01-27T10:24:00.863Z,7.00
2023-01-27T10:26:40.963Z,6.50
2023-01-27T10:29:18.827Z,7.40
2023-01-27T10:31:53.486Z,8.77
2023-01-27T10:34:34.688Z,7.77
2023-01-27T10:37:10.087Z,7.53
2023-01-27T10:39:41.255Z,8.10
2023-01-27T10:42:28.108Z,7.63
2023-01-27T10:45:00.589Z,6.57
2023-01-27T10:47:29.897Z,4.97
2023-01-27T10:49:58.373Z,4.00
2023-01-27T10:52:27.232Z,22.40
2023-01-27T10:54:57.936Z,5.50
2023-01-27T10:57:31.898Z,3.47
2023-01-27T11:00:35.724Z,2.83
2023-01-27T11:03:02.949Z,2.70
2023-01-27T11:05:41.334Z,2.43
2023-01-27T11:08:12.376Z,2.60
2023-01-27T11:11:17.433Z,2.57
2023-01-27T11:13:43.919Z,2.23
2023-01-27T11:16:14.781Z,2.57
2023-01-27T11:18:41.624Z,2.87
2023-01-27T11:21:15.158Z,2.77
2023-01-27T11:23:43.337Z,2.80
2023-01-27T11:26:22.082Z,2.53
2023-01-27T11:29:08.558Z,3.93
2023-01-27T11:31:50.214Z,3.10
2023-01-27T11:34:36.948Z,2.17
2023-01-27T11:37:18.068Z,2.10
2023-01-27T11:39:44.304Z,2.40
2023-01-27T11:42:10.932Z,2.70
2023-01-27T11:44:37.536Z,2.50
2023-01-27T11:47:06.221Z,2.40
2023-01-27T11:49:36.714Z,2.30
2023-01-27T11:52:09.911Z,2.30
2023-01-27T11:54:42.021Z,2.53
2023-01-27T11:57:15.661Z,2.57
2023-01-27T11:59:42.413Z,2.67
2023-01-27T12:02:08.702Z,2.73
2023-01-27T12:04:35.007Z,2.80
2023-01-27T12:07:02.859Z,2.90
2023-01-27T12:09:32.117Z,2.70
2023-01-27T12:12:13.652Z,2.60
2023-01-27T12:14:50.185Z,2.07
2023-01-27T12:17:23.076Z,2.00
2023-01-27T12:19:49.376Z,2.00
2023-01-27T12:22:21.421Z,2.43
2023-01-27T12:24:49.614Z,2.30
2023-01-27T12:27:20.820Z,2.00
2023-01-27T12:30:04.760Z,1.90
2023-01-27T12:32:49.679Z,2.10
2023-01-27T12:35:21.015Z,2.10
2023-01-27T12:37:48.210Z,1.50
2023-01-27T12:40:21.471Z,18.80
2023-01-27T12:42:47.782Z,5.10
2023-01-27T12:45:18.746Z,1.97
2023-01-27T12:47:55.979Z,1.87
2023-01-27T12:50:23.859Z,1.53
2023-01-27T12:52:54.240Z,1.23
2023-01-27T12:55:27.842Z,1.43
2023-01-27T12:57:54.189Z,1.43
2023-01-27T13:00:20.774Z,1.17
2023-01-27T13:02:48.150Z,1.50
2023-01-27T13:05:16.428Z,1.43
2023-01-27T13:07:47.180Z,1.40
2023-01-27T13:10:18.970Z,1.20
2023-01-27T13:12:52.300Z,1.13
2023-01-27T13:15:20.514Z,1.30
2023-01-27T13:17:48.340Z,13.83
2023-01-27T13:20:26.050Z,1.90
2023-01-27T13:23:06.098Z,1.30
2023-01-27T13:25:41.261Z,1.20
2023-01-27T13:28:08.785Z,1.30
2023-01-27T13:30:37.596Z,1.00
2023-01-27T13:33:30.275Z,1.00
2023-01-27T13:36:12.832Z,1.00
2023-01-27T13:39:02.453Z,0.80
2023-01-27T13:41:32.533Z,0.80
2023-01-27T13:44:17.376Z,0.90
2023-01-27T13:46:44.704Z,1.00
2023-01-27T13:49:17.087Z,1.90
2023-01-27T13:51:43.309Z,2.30
2023-01-27T13:54:12.114Z,1.90
2023-01-27T13:56:51.040Z,1.57
2023-01-27T13:59:17.284Z,2.57
2023-01-27T14:01:49.959Z,2.30
2023-01-27T14:04:35.125Z,1.40
2023-01-27T14:07:10.529Z,1.30
2023-01-27T14:09:38.661Z,1.53
2023-01-27T14:12:09.082Z,1.80
2023-01-27T14:14:58.478Z,1.63
2023-01-27T14:17:44.109Z,2.20
2023-01-27T14:20:26.097Z,2.00
2023-01-27T14:23:04.868Z,1.93
2023-01-27T14:25:48.440Z,2.00
2023-01-27T14:28:33.453Z,2.10
2023-01-27T14:31:10.725Z,2.07
2023-01-27T14:33:56.071Z,1.93
2023-01-27T14:36:29.435Z,2.10
2023-01-27T14:38:55.669Z,2.47
2023-01-27T14:41:24.980Z,5.97
2023-01-27T14:44:00.330Z,2.40
2023-01-27T14:46:32.684Z,1.70
2023-01-27T14:49:12.185Z,1.67
2023-01-27T14:51:50.696Z,1.80
2023-01-27T14:54:28.927Z,1.67
2023-01-27T14:56:58.173Z,1.63
2023-01-27T14:59:27.499Z,2.50
2023-01-27T15:02:17.614Z,2.97
2023-01-27T15:04:46.987Z,1.83
2023-01-27T15:07:16.404Z,1.97
2023-01-27T15:09:42.653Z,1.80
2023-01-27T15:12:09.021Z,1.80
2023-01-27T15:14:38.279Z,2.00
2023-01-27T15:17:23.310Z,2.10
2023-01-27T15:20:06.524Z,1.67
2023-01-27T15:22:52.092Z,2.20
2023-01-27T15:25:30.906Z,1.70
2023-01-27T15:27:57.814Z,1.70
2023-01-27T15:30:31.831Z,1.90
2023-01-27T15:32:58.174Z,2.27
2023-01-27T15:35:37.919Z,2.23
2023-01-27T15:38:10.236Z,2.10
2023-01-27T15:40:55.313Z,2.47
2023-01-27T15:43:23.289Z,2.70
2023-01-27T15:45:54.008Z,2.30
2023-01-27T15:48:22.661Z,2.20
2023-01-27T15:50:56.449Z,2.03
2023-01-27T15:53:27.511Z,1.90
2023-01-27T15:55:55.572Z,11.47
2023-01-27T15:58:37.931Z,5.67
2023-01-27T16:01:07.172Z,2.77
2023-01-27T16:03:35.821Z,3.00
2023-01-27T16:06:08.878Z,2.90
2023-01-27T16:08:54.166Z,2.60
2023-01-27T16:11:37.527Z,2.27
2023-01-27T16:14:13.591Z,3.37
2023-01-27T16:16:40.805Z,3.20
2023-01-27T16:19:11.099Z,2.60
2023-01-27T16:21:41.768Z,2.13
2023-01-27T16:24:13.854Z,2.30
2023-01-27T16:26:40.203Z,2.23
2023-01-27T16:29:12.623Z,2.70
2023-01-27T16:31:40.664Z,2.47
2023-01-27T16:34:15.867Z,2.80
2023-01-27T16:36:42.257Z,2.50
2023-01-27T16:39:18.310Z,2.33
2023-01-27T16:41:52.198Z,2.40
2023-01-27T16:44:21.117Z,2.50
2023-01-27T16:46:55.631Z,3.20
2023-01-27T16:49:28.571Z,2.37
2023-01-27T16:51:56.102Z,2.17
2023-01-27T16:54:32.661Z,2.00
2023-01-27T16:56:58.991Z,2.20
2023-01-27T16:59:27.296Z,2.30
2023-01-27T17:01:59.740Z,2.33
2023-01-27T17:04:27.605Z,2.30
2023-01-27T17:06:56.684Z,2.70
2023-01-27T17:09:23.076Z,2.60
2023-01-27T17:11:49.525Z,2.50
2023-01-27T17:14:29.996Z,2.60
2023-01-27T17:16:57.925Z,3.97
2023-01-27T17:19:27.793Z,3.20
2023-01-27T17:21:58.435Z,3.63
2023-01-27T17:24:24.711Z,4.07
2023-01-27T17:27:05.770Z,4.00
2023-01-27T17:29:36.839Z,4.10
2023-01-27T17:32:04.213Z,3.80
2023-01-27T17:34:30.653Z,3.90
2023-01-27T17:37:15.969Z,12.50
2023-01-27T17:39:42.584Z,8.27
2023-01-27T17:42:13.389Z,6.63
2023-01-27T17:44:39.767Z,5.27
2023-01-27T17:47:06.254Z,5.17
2023-01-27T17:49:32.627Z,3.87
2023-01-27T17:52:00.117Z,4.27
2023-01-27T17:54:30.107Z,3.87
2023-01-27T17:57:00.782Z,4.10
2023-01-27T17:59:28.166Z,4.43
2023-01-27T18:01:55.180Z,4.33
2023-01-27T18:04:22.332Z,4.47
2023-01-27T18:06:49.887Z,5.00
2023-01-27T18:09:20.750Z,5.00
2023-01-27T18:11:51.552Z,4.77
2023-01-27T18:14:18.244Z,4.93
2023-01-27T18:16:44.592Z,5.80
2023-01-27T18:19:22.373Z,5.20
2023-01-27T18:21:49.065Z,5.50
2023-01-27T18:24:19.964Z,6.10
2023-01-27T18:26:46.281Z,6.30
2023-01-27T18:29:12.488Z,6.20
2023-01-27T18:31:45.122Z,6.17
2023-01-27T18:34:20.405Z,6.13
2023-01-27T18:36:56.083Z,5.90
2023-01-27T18:39:32.655Z,5.50
2023-01-27T18:41:59.303Z,5.57
2023-01-27T18:44:34.130Z,10.90
2023-01-27T18:47:18.567Z,6.73
2023-01-27T18:49:44.857Z,5.50
2023-01-27T18:52:13.034Z,4.90
2023-01-27T18:54:39.360Z,5.20
2023-01-27T18:57:05.681Z,4.77
2023-01-27T18:59:32.027Z,4.83
2023-01-27T19:01:58.526Z,4.73
2023-01-27T19:04:25.252Z,5.27
2023-01-27T19:06:51.619Z,4.70
2023-01-27T19:09:18.039Z,5.00
2023-01-27T19:11:44.658Z,5.57
2023-01-27T19:14:11.061Z,6.90
2023-01-27T19:16:37.426Z,7.37
2023-01-27T19:19:03.707Z,7.30
2023-01-27T19:21:30.265Z,6.93
2023-01-27T19:23:56.684Z,6.17
2023-01-27T19:26:23.359Z,6.90
2023-01-27T19:28:54.208Z,7.20
2023-01-27T19:31:21.011Z,7.93
2023-01-27T19:33:47.476Z,7.90
2023-01-27T19:36:24.966Z,7.50
2023-01-27T19:39:11.519Z,7.20
2023-01-27T19:41:37.746Z,7.27
2023-01-27T19:44:04.044Z,8.03
2023-01-27T19:46:31.040Z,7.93
2023-01-27T19:48:57.533Z,7.57
2023-01-27T19:51:24.170Z,8.33
2023-01-27T19:53:50.810Z,8.30
2023-01-27T19:56:18.905Z,8.33
2023-01-27T19:58:47.129Z,8.23
2023-01-27T20:01:13.450Z,9.00
2023-01-27T20:03:39.908Z,9.83
2023-01-27T20:06:21.160Z,9.87
2023-01-27T20:09:06.064Z,9.10
2023-01-27T20:11:34.081Z,9.73
2023-01-27T20:14:01.030Z,9.33
2023-01-27T20:16:27.448Z,9.20
2023-01-27T20:18:53.739Z,8.73
2023-01-27T20:21:25.033Z,8.63
2023-01-27T20:23:51.705Z,8.80
2023-01-27T20:26:20.372Z,8.80
2023-01-27T20:28:47.773Z,31.23
2023-01-27T20:31:18.396Z,10.93
2023-01-27T20:33:45.058Z,8.93
2023-01-27T20:36:13.316Z,8.70
2023-01-27T20:38:40.629Z,8.40
2023-01-27T20:41:07.581Z,8.90
2023-01-27T20:43:35.420Z,9.50
2023-01-27T20:46:03.983Z,8.60
2023-01-27T20:48:30.336Z,8.60
2023-01-27T20:51:00.619Z,9.00
2023-01-27T20:53:31.369Z,8.20
2023-01-27T20:55:58.726Z,7.70
2023-01-27T20:58:25.505Z,7.73
2023-01-27T21:00:51.831Z,7.07
2023-01-27T21:03:18.398Z,7.07
2023-01-27T21:05:45.742Z,6.87
2023-01-27T21:08:12.215Z,6.60
2023-01-27T21:10:38.536Z,6.67
2023-01-27T21:13:04.995Z,6.83
2023-01-27T21:15:31.319Z,6.07
2023-01-27T21:17:57.648Z,5.67
2023-01-27T21:20:23.954Z,4.73
2023-01-27T21:22:50.220Z,4.23
2023-01-27T21:25:16.867Z,4.33
2023-01-27T21:27:44.899Z,4.50
2023-01-27T21:30:12.365Z,4.60
2023-01-27T21:32:38.609Z,6.67
2023-01-27T21:35:05.035Z,4.47
2023-01-27T21:37:31.349Z,4.20
2023-01-27T21:39:57.636Z,4.50
2023-01-27T21:42:42.688Z,4.50
2023-01-27T21:45:12.417Z,4.20
2023-01-27T21:47:38.889Z,4.53
2023-01-27T21:50:06.179Z,4.77
2023-01-27T21:52:35.549Z,4.10
2023-01-27T21:55:05.397Z,4.60
2023-01-27T21:57:32.046Z,4.07
2023-01-27T21:59:58.353Z,4.00
2023-01-27T22:02:24.698Z,4.13
2023-01-27T22:04:51.037Z,4.10
2023-01-27T22:07:17.874Z,4.20
2023-01-27T22:09:44.169Z,4.13
2023-01-27T22:12:11.795Z,4.27
2023-01-27T22:14:38.115Z,4.43
2023-01-27T22:17:04.708Z,4.13
2023-01-27T22:19:31.089Z,4.70
2023-01-27T22:21:57.545Z,4.73
2023-01-27T22:24:24.414Z,4.57
2023-01-27T22:26:51.095Z,4.90
2023-01-27T22:29:17.479Z,4.57
2023-01-27T22:31:43.780Z,4.50
2023-01-27T22:34:10.069Z,4.40
2023-01-27T22:36:36.699Z,4.60
2023-01-27T22:39:03.986Z,5.67
2023-01-27T22:41:30.591Z,5.03
2023-01-27T22:43:57.272Z,5.30
2023-01-27T22:46:23.678Z,5.27
2023-01-27T22:48:50.262Z,5.50
2023-01-27T22:51:16.824Z,5.27
2023-01-27T22:53:43.235Z,5.60
2023-01-27T22:56:09.596Z,5.07
2023-01-27T22:58:35.904Z,4.97
2023-01-27T23:01:05.649Z,5.30
2023-01-27T23:03:31.993Z,5.33
2023-01-27T23:05:58.315Z,4.73
2023-01-27T23:08:24.613Z,4.87
2023-01-27T23:10:50.882Z,5.20
2023-01-27T23:13:17.126Z,4.20
2023-01-27T23:15:43.378Z,4.30
2023-01-27T23:18:12.697Z,4.47
2023-01-27T23:20:39.784Z,4.23
2023-01-27T23:23:06.531Z,4.30
2023-01-27T23:25:33.631Z,4.60
2023-01-27T23:27:59.977Z,5.20
2023-01-27T23:30:26.665Z,4.57
2023-01-27T23:32:57.095Z,4.93
2023-01-27T23:35:23.652Z,4.07
2023-01-27T23:37:49.997Z,4.50
2023-01-27T23:40:16.383Z,4.80
2023-01-27T23:42:42.691Z,4.50
2023-01-27T23:45:09.133Z,4.10
2023-01-27T23:47:35.387Z,4.70
2023-01-27T23:50:01.753Z,4.60
2023-01-27T23:52:28.035Z,4.60
2023-01-27T23:54:54.297Z,4.10
2023-01-27T23:57:20.637Z,4.73
2023-01-27T23:59:46.970Z,5.17
